Flight Track Log - Related Links

Times and Time Zones

All times are in EDT time to prevent confusion due to time zone crossing. See the AWE1940 flight status page for this flight to view local times or setup timezone preferences in your user account.

Time Position Orientation Groundspeed Altitude Reporting Facility
EDT Latitude Longitude Course Direction KTS MPH feet Rate Location/Type
Sun 07:51:54 PM 29.9525 -95.3350 121° Southeast 180 207 1,000  Level Houston Center
Sun 07:53:07 PM 29.9219 -95.2753 121° Southeast 234 269 2,900 2,074 Climbing Houston Center
Sun 07:54:10 PM 29.9328 -95.1681 83° East 282 325 5,700 2,613 Climbing Houston Center
Sun 07:55:11 PM 29.9394 -95.0753 85° East 288 331 8,300 2,361 Climbing Houston Center
Sun 07:56:12 PM 29.9475 -94.9761 85° East 302 348 10,500 1,610 Climbing Houston Center
Sun 07:57:14 PM 29.9556 -94.8625 85° East 347 399 11,600 1,548 Climbing Houston Center
Sun 07:58:16 PM 29.9650 -94.7350 85° East 390 449 13,700 2,177 Climbing Houston Center
Sun 07:59:18 PM 29.9747 -94.6058 85° East 401 461 16,100 1,984 Climbing Houston Center
Sun 08:00:20 PM 29.9853 -94.4672 85° East 416 479 17,800 1,659 Climbing Houston Center
Sun 08:01:21 PM 29.9944 -94.3294 86° East 431 496 19,500 1,561 Climbing Houston Center
Sun 08:02:23 PM 30.0117 -94.1881 82° East 446 513 21,000 1,694 Climbing Houston Center
Sun 08:03:25 PM 30.0331 -94.0169 82° East 452 520 23,000 968 Climbing Houston Center
Sun 08:04:27 PM 30.0508 -93.8744 82° East 453 521 23,000 1,210 Level Houston Center
Sun 08:05:29 PM 30.0683 -93.7344 82° East 445 512 25,500 1,463 Climbing Houston Center
Sun 08:06:30 PM 30.0831 -93.5994 83° East 432 497 26,000 488 Climbing Houston Center
Sun 08:07:32 PM 30.1000 -93.4525 82° East 459 528 26,500 1,065 Climbing Houston Center
Sun 08:08:34 PM 30.1214 -93.2750 82° East 471 542 28,200 1,306 Climbing Houston Center
Sun 08:09:36 PM 30.1381 -93.1294 82° East 464 534 29,200 919 Climbing Houston Center
Sun 08:10:38 PM 30.1647 -92.9833 78° East 467 537 30,100 878 Climbing Houston Center
Sun 08:11:39 PM 30.1922 -92.8394 77° East 464 534 31,000 780 Climbing Houston Center
Sun 08:12:41 PM 30.2214 -92.6944 77° East 464 534 31,700 774 Climbing Houston Center
Sun 08:13:43 PM 30.2497 -92.5483 77° East 468 539 32,600 629 Climbing Houston Center
Sun 08:14:45 PM 30.2597 -92.3728 86° East 462 532 33,000 195 Climbing Houston Center
Sun 08:15:46 PM 30.2592 -92.2383 90° East 455 524 33,000  Level Houston Center
Sun 08:16:48 PM 30.2631 -92.0928 88° East 455 524 33,000  Level Houston Center
Sun 08:17:50 PM 30.2700 -91.9161 87° East 460 529 33,000  Level Houston Center
Sun 08:18:52 PM 30.2747 -91.7694 88° East 460 529 33,000  Level Houston Center
Sun 08:19:54 PM 30.2797 -91.6411 87° East 464 534 33,000  Level Houston Center
Sun 08:20:55 PM 30.2914 -91.4578 86° East 476 548 33,000  Level Houston Center
Sun 08:21:57 PM 30.2994 -91.3044 86° East 478 550 33,000  Level Houston Center
Sun 08:22:59 PM 30.3275 -91.1539 78° East 479 551 33,000  Level Houston Center
Sun 08:24:01 PM 30.3703 -91.0069 71° East 481 554 33,000  Level Houston Center
Sun 08:25:02 PM 30.4147 -90.8614 70° East 480 552 33,000 -49 Level Houston Center
Sun 08:26:04 PM 30.4583 -90.7153 71° East 480 552 32,900  Descending Houston Center
Sun 08:27:06 PM 30.5278 -90.5822 59° Northeast 481 554 33,000 49 Climbing Houston Center
Sun 08:28:07 PM 30.6136 -90.4231 58° Northeast 484 557 33,000  Level Houston Center
Sun 08:29:09 PM 30.6858 -90.2906 58° Northeast 483 556 33,000  Level Houston Center
Sun 08:30:11 PM 30.7589 -90.1564 58° Northeast 488 562 33,000  Level Houston Center
Sun 08:31:13 PM 30.8308 -90.0225 58° Northeast 485 558 33,000  Level Houston Center
Sun 08:32:14 PM 30.9033 -89.8869 58° Northeast 488 562 33,000  Level Houston Center
Sun 08:33:16 PM 30.9753 -89.7517 58° Northeast 489 563 33,000  Level Houston Center
Sun 08:34:18 PM 31.0481 -89.6164 58° Northeast 490 564 33,000  Level Houston Center
Sun 08:35:20 PM 31.1208 -89.4806 58° Northeast 491 565 33,000  Level Houston Center
Sun 08:36:21 PM 31.1919 -89.3458 58° Northeast 488 562 33,000  Level Houston Center
Sun 08:37:23 PM 31.2728 -89.1939 58° Northeast 486 559 33,000  Level Houston Center
Sun 08:38:25 PM 31.3439 -89.0581 58° Northeast 489 563 33,000  Level Houston Center
Sun 08:39:26 PM 31.4150 -88.9236 58° Northeast 486 559 33,000  Level Houston Center
Sun 08:40:29 PM 31.4847 -88.7858 59° Northeast 488 562 33,000  Level Houston Center
Sun 08:41:30 PM 31.5572 -88.6494 58° Northeast 490 564 33,000  Level Houston Center
Sun 08:42:31 PM 31.6269 -88.5131 59° Northeast 486 559 33,000  Level Houston Center
Sun 08:43:33 PM 31.7125 -88.3506 58° Northeast 485 558 33,000  Level Houston Center
Sun 08:44:35 PM 31.7822 -88.2147 59° Northeast 482 555 33,000  Level Houston Center
Sun 08:45:20 PM 31.8319 -88.1086 61° Northeast 480 552 33,000  Level Atlanta Center
Sun 08:46:20 PM 31.8861 -87.9864 62° Northeast 467 537 33,000  Level Atlanta Center
Sun 08:47:20 PM 31.9489 -87.8472 62° Northeast 467 537 33,000  Level Atlanta Center
Sun 08:48:20 PM 32.0072 -87.7103 63° Northeast 467 537 33,000  Level Atlanta Center
Sun 08:49:20 PM 32.0744 -87.5536 63° Northeast 467 537 33,000  Level Atlanta Center
Sun 08:50:20 PM 32.1306 -87.4136 65° Northeast 467 537 33,000  Level Atlanta Center
Sun 08:51:20 PM 32.1928 -87.2736 62° Northeast 467 537 33,000  Level Atlanta Center
Sun 08:52:20 PM 32.2503 -87.1381 63° Northeast 467 537 33,000  Level Atlanta Center
Sun 08:53:20 PM 32.3122 -87.0003 62° Northeast 462 532 33,000  Level Atlanta Center
Sun 08:54:20 PM 32.3675 -86.8644 64° Northeast 462 532 33,000  Level Atlanta Center
Sun 08:55:20 PM 32.4311 -86.7261 61° Northeast 462 532 33,000  Level Atlanta Center
Sun 08:56:20 PM 32.4903 -86.6047 60° Northeast 462 532 33,000  Level Atlanta Center
Sun 08:57:20 PM 32.5519 -86.4439 66° East 467 537 33,000  Level Atlanta Center
Sun 08:58:20 PM 32.6108 -86.3025 64° Northeast 472 543 33,000  Level Atlanta Center
Sun 08:59:20 PM 32.6719 -86.1586 63° Northeast 472 543 33,000  Level Atlanta Center
Sun 09:00:20 PM 32.7242 -86.0289 64° Northeast 477 549 33,000  Level Atlanta Center
Sun 09:01:20 PM 32.7828 -85.8869 64° Northeast 477 549 33,000  Level Atlanta Center
Sun 09:02:20 PM 32.8411 -85.7422 64° Northeast 482 555 33,000  Level Atlanta Center
Sun 09:03:20 PM 32.9014 -85.5975 64° Northeast 482 555 33,000  Level Atlanta Center
Sun 09:04:20 PM 32.9594 -85.4575 64° Northeast 477 549 33,000  Level Atlanta Center
Sun 09:05:20 PM 33.0194 -85.3122 64° Northeast 477 549 33,000  Level Atlanta Center
Sun 09:06:20 PM 33.0836 -85.1619 63° Northeast 467 537 33,000  Level Atlanta Center
Sun 09:07:20 PM 33.1411 -85.0189 64° Northeast 467 537 33,000  Level Atlanta Center
Sun 09:08:20 PM 33.1986 -84.8756 64° Northeast 467 537 33,000  Level Atlanta Center
Sun 09:09:20 PM 33.2558 -84.7294 65° Northeast 476 548 33,000  Level Atlanta Center
Sun 09:10:20 PM 33.3131 -84.5833 65° Northeast 483 556 33,000  Level Atlanta Center
Sun 09:11:20 PM 33.3700 -84.4392 65° Northeast 477 549 33,000  Level Atlanta Center
Sun 09:12:20 PM 33.4286 -84.2953 64° Northeast 477 549 33,000  Level Atlanta Center
Sun 09:13:20 PM 33.4831 -84.1483 66° East 477 549 33,000  Level Atlanta Center
Sun 09:14:20 PM 33.5439 -84.0014 64° Northeast 477 549 33,000  Level Atlanta Center
Sun 09:15:20 PM 33.6000 -83.8567 65° Northeast 483 556 33,000  Level Atlanta Center
Sun 09:16:20 PM 33.6561 -83.7094 65° Northeast 478 550 33,000  Level Atlanta Center
Sun 09:17:20 PM 33.7139 -83.5594 65° Northeast 484 557 33,000  Level Atlanta Center
Sun 09:18:20 PM 33.7717 -83.4167 64° Northeast 476 548 33,000 -150 Level Atlanta Center
Sun 09:19:20 PM 33.8272 -83.2711 65° Northeast 471 542 32,700 -550 Descending Atlanta Center
Sun 09:20:20 PM 33.8786 -83.1406 65° Northeast 471 542 31,900 -850 Descending Atlanta Center
Sun 09:21:20 PM 33.9358 -82.9972 64° Northeast 471 542 31,000 -450 Descending Atlanta Center
Sun 09:22:20 PM 33.9867 -82.8514 67° East 471 542 31,000  Level Atlanta Center
Sun 09:23:20 PM 34.0436 -82.7025 65° Northeast 477 549 31,000  Level Atlanta Center
Sun 09:24:20 PM 34.0942 -82.5564 67° East 477 549 31,000 -600 Level Atlanta Center
Sun 09:25:20 PM 34.1611 -82.3969 63° Northeast 477 549 29,800 -2,450 Descending Atlanta Center
Sun 09:26:20 PM 34.2153 -82.2503 66° East 477 549 26,100 -3,050 Descending Atlanta Center
Sun 09:27:20 PM 34.2842 -82.1081 60° Northeast 477 549 23,700 -2,650 Descending Atlanta Center
Sun 09:28:20 PM 34.3742 -81.9953 46° Northeast 476 548 20,800 -2,800 Descending Atlanta Center
Sun 09:29:20 PM 34.4619 -81.8847 46° Northeast 464 534 18,100 -2,667 Descending Atlanta Center
Sun 09:30:17 PM 34.5436 -81.7842 45° Northeast 445 512 15,600 -2,518 Descending Atlanta Center
Sun 09:31:12 PM 34.6211 -81.6914 45° Northeast 421 484 13,400 -1,826 Descending Atlanta Center
Sun 09:32:12 PM 34.6986 -81.5906 47° Northeast 398 458 12,100 -678 Descending Atlanta Center
Sun 09:33:07 PM 34.7678 -81.5000 47° Northeast 396 456 12,100 -52 Level Atlanta Center
Sun 09:34:08 PM 34.8428 -81.4042 46° Northeast 397 457 12,000 -52 Descending Atlanta Center
Sun 09:35:03 PM 34.9139 -81.3133 46° Northeast 397 457 12,000  Level Atlanta Center
Sun 09:35:20 PM 34.9261 -81.2978 46° Northeast 385 443 12,000 98 Level Atlanta Center
Sun 09:36:04 PM 34.9869 -81.2169 47° Northeast 397 457 12,100  Climbing Atlanta Center
Sun 09:36:20 PM 35.0011 -81.1989 46° Northeast 385 443 12,000 -200 Descending Atlanta Center
Sun 09:37:04 PM 35.0597 -81.1233 47° Northeast 375 432 11,900 -200 Descending Atlanta Center
Sun 09:37:20 PM 35.0697 -81.1078 52° Northeast 372 428 11,800 -1,164 Descending Atlanta Center
Sun 09:38:11 PM 35.1478 -81.0567 28° Northeast 309 356 10,600 -1,528 Descending Atlanta Center
Sun 09:39:06 PM 35.2181 -81.0211 22° Northeast 310 357 9,100 -1,436 Descending Atlanta Center
Sun 09:40:08 PM 35.2961 -80.9775 25° Northeast 305 351 7,800 -1,096 Descending Atlanta Center
Sun 09:41:01 PM 35.3403 -80.9097 51° Northeast 261 300 7,000 -1,200 Descending Atlanta Center
Sun 09:42:08 PM 35.3861 -80.8264 56° Northeast 252 290 5,400 -1,230 Descending Atlanta Center
Sun 09:43:03 PM 35.3642 -80.7789 120° Southeast 194 223 4,500 -982 Descending Atlanta Center

Login

Don't have an account? Register now (free) for customized features, flight alerts, and more!